sensor_id;sensor_type;location;lat;lon;timestamp;P1;P2;P0
80628;PMS5003;69983;42.370;-71.210;2023-09-19T00:00:25;128;97;
80628;PMS5003;69983;42.370;-71.210;2023-09-19T00:02:26;83;64;
80628;PMS5003;69983;42.370;-71.210;2023-09-19T00:04:27;61;46;
80628;PMS5003;69983;42.370;-71.210;2023-09-19T00:06:36;65;47;
80628;PMS5003;69983;42.370;-71.210;2023-09-19T00:08:40;50;39;
80628;PMS5003;69983;42.370;-71.210;2023-09-19T00:10:44;47;39;
80628;PMS5003;69983;42.370;-71.210;2023-09-19T00:13:15;54;39;
80628;PMS5003;69983;42.370;-71.210;2023-09-19T00:20:22;24;8;
80628;PMS5003;69983;42.370;-71.210;2023-09-19T00:20:51;25;17;
80628;PMS5003;69983;42.370;-71.210;2023-09-19T00:22:55;25;19;
80628;PMS5003;69983;42.370;-71.210;2023-09-19T00:25:50;96;96;
80628;PMS5003;69983;42.370;-71.210;2023-09-19T00:27:46;144;114;
80628;PMS5003;69983;42.370;-71.210;2023-09-19T00:29:47;135;108;
80628;PMS5003;69983;42.370;-71.210;2023-09-19T00:31:48;143;119;
80628;PMS5003;69983;42.370;-71.210;2023-09-19T00:33:48;180;150;
80628;PMS5003;69983;42.370;-71.210;2023-09-19T00:35:49;233;188;
80628;PMS5003;69983;42.370;-71.210;2023-09-19T00:37:50;202;167;
80628;PMS5003;69983;42.370;-71.210;2023-09-19T00:39:50;168;134;
80628;PMS5003;69983;42.370;-71.210;2023-09-19T00:41:51;214;179;
80628;PMS5003;69983;42.370;-71.210;2023-09-19T00:43:51;366;303;
80628;PMS5003;69983;42.370;-71.210;2023-09-19T00:45:52;396;325;
80628;PMS5003;69983;42.370;-71.210;2023-09-19T00:47:52;322;268;
80628;PMS5003;69983;42.370;-71.210;2023-09-19T00:49:52;328;256;
80628;PMS5003;69983;42.370;-71.210;2023-09-19T00:51:53;199;168;
80628;PMS5003;69983;42.370;-71.210;2023-09-19T00:53:54;211;157;
80628;PMS5003;69983;42.370;-71.210;2023-09-19T00:55:53;176;150;
80628;PMS5003;69983;42.370;-71.210;2023-09-19T00:57:55;216;158;
80628;PMS5003;69983;42.370;-71.210;2023-09-19T00:59:54;177;144;
80628;PMS5003;69983;42.370;-71.210;2023-09-19T01:01:55;200;152;
80628;PMS5003;69983;42.370;-71.210;2023-09-19T01:03:55;271;215;
80628;PMS5003;69983;42.370;-71.210;2023-09-19T01:05:55;219;189;
80628;PMS5003;69983;42.370;-71.210;2023-09-19T01:07:56;262;207;
80628;PMS5003;69983;42.370;-71.210;2023-09-19T01:09:56;194;158;
80628;PMS5003;69983;42.370;-71.210;2023-09-19T01:11:58;175;141;
80628;PMS5003;69983;42.370;-71.210;2023-09-19T01:13:58;159;123;
80628;PMS5003;69983;42.370;-71.210;2023-09-19T01:15:59;113;90;
80628;PMS5003;69983;42.370;-71.210;2023-09-19T01:17:59;122;97;
80628;PMS5003;69983;42.370;-71.210;2023-09-19T01:22:00;187;138;
80628;PMS5003;69983;42.370;-71.210;2023-09-19T01:24:10;232;163;
80628;PMS5003;69983;42.370;-71.210;2023-09-19T01:26:05;229;160;
80628;PMS5003;69983;42.370;-71.210;2023-09-19T01:30:06;158;103;
80628;PMS5003;69983;42.370;-71.210;2023-09-19T01:32:03;144;93;
80628;PMS5003;69983;42.370;-71.210;2023-09-19T01:34:02;99;67;
80628;PMS5003;69983;42.370;-71.210;2023-09-19T01:36:02;90;59;
80628;PMS5003;69983;42.370;-71.210;2023-09-19T01:38:03;67;50;
80628;PMS5003;69983;42.370;-71.210;2023-09-19T01:40:04;122;108;
80628;PMS5003;69983;42.370;-71.210;2023-09-19T01:42:05;103;92;
80628;PMS5003;69983;42.370;-71.210;2023-09-19T01:44:04;205;172;
80628;PMS5003;69983;42.370;-71.210;2023-09-19T01:46:06;187;157;
80628;PMS5003;69983;42.370;-71.210;2023-09-19T01:48:21;166;131;
80628;PMS5003;69983;42.370;-71.210;2023-09-19T01:50:10;119;100;
80628;PMS5003;69983;42.370;-71.210;2023-09-19T01:52:09;106;91;
80628;PMS5003;69983;42.370;-71.210;2023-09-19T01:54:09;80;71;
80628;PMS5003;69983;42.370;-71.210;2023-09-19T01:56:08;78;60;
80628;PMS5003;69983;42.370;-71.210;2023-09-19T01:58:12;57;48;
80628;PMS5003;69983;42.370;-71.210;2023-09-19T02:00:09;288;234;
80628;PMS5003;69983;42.370;-71.210;2023-09-19T02:02:10;229;183;
80628;PMS5003;69983;42.370;-71.210;2023-09-19T02:04:10;173;148;
80628;PMS5003;69983;42.370;-71.210;2023-09-19T02:06:13;149;118;
80628;PMS5003;69983;42.370;-71.210;2023-09-19T02:08:11;125;101;
80628;PMS5003;69983;42.370;-71.210;2023-09-19T02:10:12;100;84;
80628;PMS5003;69983;42.370;-71.210;2023-09-19T02:12:13;177;154;
80628;PMS5003;69983;42.370;-71.210;2023-09-19T02:14:13;137;122;
80628;PMS5003;69983;42.370;-71.210;2023-09-19T02:16:14;102;93;
80628;PMS5003;69983;42.370;-71.210;2023-09-19T02:18:13;89;77;
80628;PMS5003;69983;42.370;-71.210;2023-09-19T02:20:14;65;59;
80628;PMS5003;69983;42.370;-71.210;2023-09-19T02:22:15;286;231;
80628;PMS5003;69983;42.370;-71.210;2023-09-19T02:24:15;259;197;
80628;PMS5003;69983;42.370;-71.210;2023-09-19T02:26:15;388;300;
80628;PMS5003;69983;42.370;-71.210;2023-09-19T02:28:15;298;241;
80628;PMS5003;69983;42.370;-71.210;2023-09-19T02:30:16;246;188;
80628;PMS5003;69983;42.370;-71.210;2023-09-19T02:32:17;191;159;
80628;PMS5003;69983;42.370;-71.210;2023-09-19T02:34:17;141;125;
80628;PMS5003;69983;42.370;-71.210;2023-09-19T02:36:18;283;233;
80628;PMS5003;69983;42.370;-71.210;2023-09-19T02:38:18;216;177;
80628;PMS5003;69983;42.370;-71.210;2023-09-19T02:40:18;210;164;
80628;PMS5003;69983;42.370;-71.210;2023-09-19T02:42:19;180;138;
80628;PMS5003;69983;42.370;-71.210;2023-09-19T02:44:19;136;117;
80628;PMS5003;69983;42.370;-71.210;2023-09-19T02:46:20;113;92;
80628;PMS5003;69983;42.370;-71.210;2023-09-19T02:48:20;97;75;
80628;PMS5003;69983;42.370;-71.210;2023-09-19T02:50:21;89;76;
80628;PMS5003;69983;42.370;-71.210;2023-09-19T02:52:21;75;62;
80628;PMS5003;69983;42.370;-71.210;2023-09-19T02:54:22;159;137;
80628;PMS5003;69983;42.370;-71.210;2023-09-19T02:56:22;325;255;
80628;PMS5003;69983;42.370;-71.210;2023-09-19T02:58:23;260;200;
80628;PMS5003;69983;42.370;-71.210;2023-09-19T03:00:23;193;162;
80628;PMS5003;69983;42.370;-71.210;2023-09-19T03:02:24;172;135;
80628;PMS5003;69983;42.370;-71.210;2023-09-19T03:04:24;142;115;
80628;PMS5003;69983;42.370;-71.210;2023-09-19T03:06:25;293;244;
80628;PMS5003;69983;42.370;-71.210;2023-09-19T03:08:25;274;218;
80628;PMS5003;69983;42.370;-71.210;2023-09-19T03:10:25;208;175;
80628;PMS5003;69983;42.370;-71.210;2023-09-19T03:12:26;193;158;
80628;PMS5003;69983;42.370;-71.210;2023-09-19T03:14:26;136;112;
80628;PMS5003;69983;42.370;-71.210;2023-09-19T03:16:27;99;79;
80628;PMS5003;69983;42.370;-71.210;2023-09-19T03:18:27;87;79;
80628;PMS5003;69983;42.370;-71.210;2023-09-19T03:20:27;71;59;
80628;PMS5003;69983;42.370;-71.210;2023-09-19T03:22:28;59;49;
80628;PMS5003;69983;42.370;-71.210;2023-09-19T03:24:28;61;49;
80628;PMS5003;69983;42.370;-71.210;2023-09-19T03:26:29;50;45;
80628;PMS5003;69983;42.370;-71.210;2023-09-19T03:28:29;40;36;
80628;PMS5003;69983;42.370;-71.210;2023-09-19T03:30:29;36;32;
80628;PMS5003;69983;42.370;-71.210;2023-09-19T03:32:30;33;28;
80628;PMS5003;69983;42.370;-71.210;2023-09-19T03:34:31;37;31;
80628;PMS5003;69983;42.370;-71.210;2023-09-19T03:36:31;30;26;
80628;PMS5003;69983;42.370;-71.210;2023-09-19T03:38:31;123;114;
80628;PMS5003;69983;42.370;-71.210;2023-09-19T03:40:31;96;89;
80628;PMS5003;69983;42.370;-71.210;2023-09-19T03:42:32;159;115;
80628;PMS5003;69983;42.370;-71.210;2023-09-19T03:44:32;155;114;
80628;PMS5003;69983;42.370;-71.210;2023-09-19T03:46:33;197;130;
80628;PMS5003;69983;42.370;-71.210;2023-09-19T03:48:33;129;88;
80628;PMS5003;69983;42.370;-71.210;2023-09-19T03:50:33;74;57;
80628;PMS5003;69983;42.370;-71.210;2023-09-19T03:52:34;66;45;
80628;PMS5003;69983;42.370;-71.210;2023-09-19T03:54:35;93;58;
80628;PMS5003;69983;42.370;-71.210;2023-09-19T03:56:35;92;61;
80628;PMS5003;69983;42.370;-71.210;2023-09-19T03:58:35;75;49;
80628;PMS5003;69983;42.370;-71.210;2023-09-19T04:00:36;85;65;
80628;PMS5003;69983;42.370;-71.210;2023-09-19T04:02:36;142;102;
80628;PMS5003;69983;42.370;-71.210;2023-09-19T04:04:36;134;81;
80628;PMS5003;69983;42.370;-71.210;2023-09-19T04:06:37;94;70;
80628;PMS5003;69983;42.370;-71.210;2023-09-19T04:08:38;79;51;
80628;PMS5003;69983;42.370;-71.210;2023-09-19T04:10:37;84;50;
80628;PMS5003;69983;42.370;-71.210;2023-09-19T04:12:38;94;57;
80628;PMS5003;69983;42.370;-71.210;2023-09-19T04:14:38;63;43;
80628;PMS5003;69983;42.370;-71.210;2023-09-19T04:16:38;77;38;
80628;PMS5003;69983;42.370;-71.210;2023-09-19T04:18:39;73;46;
80628;PMS5003;69983;42.370;-71.210;2023-09-19T04:20:40;68;40;
80628;PMS5003;69983;42.370;-71.210;2023-09-19T04:22:41;59;39;
80628;PMS5003;69983;42.370;-71.210;2023-09-19T04:24:40;306;245;
80628;PMS5003;69983;42.370;-71.210;2023-09-19T04:26:41;205;161;
80628;PMS5003;69983;42.370;-71.210;2023-09-19T04:28:41;162;127;
80628;PMS5003;69983;42.370;-71.210;2023-09-19T04:30:42;128;105;
80628;PMS5003;69983;42.370;-71.210;2023-09-19T04:32:43;100;78;
80628;PMS5003;69983;42.370;-71.210;2023-09-19T04:34:43;76;58;
80628;PMS5003;69983;42.370;-71.210;2023-09-19T04:36:43;129;111;
80628;PMS5003;69983;42.370;-71.210;2023-09-19T04:38:44;208;173;
80628;PMS5003;69983;42.370;-71.210;2023-09-19T04:40:44;141;134;
80628;PMS5003;69983;42.370;-71.210;2023-09-19T04:42:45;125;108;
80628;PMS5003;69983;42.370;-71.210;2023-09-19T04:44:45;92;88;
80628;PMS5003;69983;42.370;-71.210;2023-09-19T04:46:46;96;83;
80628;PMS5003;69983;42.370;-71.210;2023-09-19T04:48:46;85;75;
80628;PMS5003;69983;42.370;-71.210;2023-09-19T04:50:48;67;63;
80628;PMS5003;69983;42.370;-71.210;2023-09-19T04:52:50;70;59;
80628;PMS5003;69983;42.370;-71.210;2023-09-19T04:54:48;67;59;
80628;PMS5003;69983;42.370;-71.210;2023-09-19T04:56:48;62;53;
80628;PMS5003;69983;42.370;-71.210;2023-09-19T04:58:49;163;147;
80628;PMS5003;69983;42.370;-71.210;2023-09-19T05:00:49;138;116;
80628;PMS5003;69983;42.370;-71.210;2023-09-19T05:02:50;159;143;
80628;PMS5003;69983;42.370;-71.210;2023-09-19T05:04:50;180;164;
80628;PMS5003;69983;42.370;-71.210;2023-09-19T05:06:50;144;129;
80628;PMS5003;69983;42.370;-71.210;2023-09-19T05:08:51;129;110;
80628;PMS5003;69983;42.370;-71.210;2023-09-19T05:10:51;107;98;
80628;PMS5003;69983;42.370;-71.210;2023-09-19T05:12:53;101;87;
80628;PMS5003;69983;42.370;-71.210;2023-09-19T05:14:51;90;75;
80628;PMS5003;69983;42.370;-71.210;2023-09-19T05:16:52;74;65;
80628;PMS5003;69983;42.370;-71.210;2023-09-19T05:18:52;65;59;
80628;PMS5003;69983;42.370;-71.210;2023-09-19T05:20:53;56;51;
80628;PMS5003;69983;42.370;-71.210;2023-09-19T05:22:57;49;47;
80628;PMS5003;69983;42.370;-71.210;2023-09-19T05:24:53;41;37;
80628;PMS5003;69983;42.370;-71.210;2023-09-19T05:26:53;45;39;
80628;PMS5003;69983;42.370;-71.210;2023-09-19T05:28:54;41;40;
80628;PMS5003;69983;42.370;-71.210;2023-09-19T05:30:55;39;30;
80628;PMS5003;69983;42.370;-71.210;2023-09-19T05:32:55;32;27;
80628;PMS5003;69983;42.370;-71.210;2023-09-19T05:34:56;25;22;
80628;PMS5003;69983;42.370;-71.210;2023-09-19T05:36:56;22;20;
80628;PMS5003;69983;42.370;-71.210;2023-09-19T05:39:02;25;23;
80628;PMS5003;69983;42.370;-71.210;2023-09-19T05:40:57;19;18;
80628;PMS5003;69983;42.370;-71.210;2023-09-19T05:42:58;15;15;
80628;PMS5003;69983;42.370;-71.210;2023-09-19T05:44:59;18;16;
80628;PMS5003;69983;42.370;-71.210;2023-09-19T05:46:58;62;50;
80628;PMS5003;69983;42.370;-71.210;2023-09-19T05:48:59;140;114;
80628;PMS5003;69983;42.370;-71.210;2023-09-19T05:51:00;100;79;
80628;PMS5003;69983;42.370;-71.210;2023-09-19T05:53:00;81;68;
80628;PMS5003;69983;42.370;-71.210;2023-09-19T05:55:01;64;57;
80628;PMS5003;69983;42.370;-71.210;2023-09-19T05:57:01;57;48;
80628;PMS5003;69983;42.370;-71.210;2023-09-19T05:59:01;158;136;
80628;PMS5003;69983;42.370;-71.210;2023-09-19T06:01:02;101;89;
80628;PMS5003;69983;42.370;-71.210;2023-09-19T06:03:02;79;69;
80628;PMS5003;69983;42.370;-71.210;2023-09-19T06:05:03;55;49;
80628;PMS5003;69983;42.370;-71.210;2023-09-19T06:07:03;51;49;
80628;PMS5003;69983;42.370;-71.210;2023-09-19T06:09:03;40;35;
80628;PMS5003;69983;42.370;-71.210;2023-09-19T06:11:04;32;26;
80628;PMS5003;69983;42.370;-71.210;2023-09-19T06:13:04;33;25;
80628;PMS5003;69983;42.370;-71.210;2023-09-19T06:15:05;22;21;
80628;PMS5003;69983;42.370;-71.210;2023-09-19T06:17:05;27;21;
80628;PMS5003;69983;42.370;-71.210;2023-09-19T06:19:05;20;19;
80628;PMS5003;69983;42.370;-71.210;2023-09-19T06:21:06;19;17;
80628;PMS5003;69983;42.370;-71.210;2023-09-19T06:23:06;14;14;
80628;PMS5003;69983;42.370;-71.210;2023-09-19T06:25:06;8;8;
80628;PMS5003;69983;42.370;-71.210;2023-09-19T06:27:08;14;14;
80628;PMS5003;69983;42.370;-71.210;2023-09-19T06:29:07;11;11;
80628;PMS5003;69983;42.370;-71.210;2023-09-19T06:31:08;9;9;
80628;PMS5003;69983;42.370;-71.210;2023-09-19T06:33:08;10;8;
80628;PMS5003;69983;42.370;-71.210;2023-09-19T06:35:08;9;5;
80628;PMS5003;69983;42.370;-71.210;2023-09-19T06:37:08;9;6;
80628;PMS5003;69983;42.370;-71.210;2023-09-19T06:39:08;6;4;
80628;PMS5003;69983;42.370;-71.210;2023-09-19T06:41:08;7;7;
80628;PMS5003;69983;42.370;-71.210;2023-09-19T06:43:09;5;5;
80628;PMS5003;69983;42.370;-71.210;2023-09-19T06:45:08;3;3;
80628;PMS5003;69983;42.370;-71.210;2023-09-19T06:47:08;4;4;
80628;PMS5003;69983;42.370;-71.210;2023-09-19T06:49:08;4;4;
80628;PMS5003;69983;42.370;-71.210;2023-09-19T06:51:09;3;3;
80628;PMS5003;69983;42.370;-71.210;2023-09-19T06:53:09;4;3;
80628;PMS5003;69983;42.370;-71.210;2023-09-19T06:55:09;2;2;
80628;PMS5003;69983;42.370;-71.210;2023-09-19T06:57:09;3;3;
80628;PMS5003;69983;42.370;-71.210;2023-09-19T06:59:09;3;3;
80628;PMS5003;69983;42.370;-71.210;2023-09-19T07:01:09;2;2;
80628;PMS5003;69983;42.370;-71.210;2023-09-19T07:03:09;1;1;
80628;PMS5003;69983;42.370;-71.210;2023-09-19T07:05:09;4;2;
80628;PMS5003;69983;42.370;-71.210;2023-09-19T07:07:09;1;1;
80628;PMS5003;69983;42.370;-71.210;2023-09-19T07:09:09;2;0;
80628;PMS5003;69983;42.370;-71.210;2023-09-19T07:11:09;3;1;
80628;PMS5003;69983;42.370;-71.210;2023-09-19T07:13:10;0;0;
80628;PMS5003;69983;42.370;-71.210;2023-09-19T07:15:10;1;1;
80628;PMS5003;69983;42.370;-71.210;2023-09-19T07:17:10;1;1;
80628;PMS5003;69983;42.370;-71.210;2023-09-19T07:19:10;0;0;
80628;PMS5003;69983;42.370;-71.210;2023-09-19T07:21:10;0;0;
80628;PMS5003;69983;42.370;-71.210;2023-09-19T07:23:10;0;0;
80628;PMS5003;69983;42.370;-71.210;2023-09-19T07:25:10;2;1;
80628;PMS5003;69983;42.370;-71.210;2023-09-19T07:27:10;0;0;
80628;PMS5003;69983;42.370;-71.210;2023-09-19T07:29:10;0;0;
80628;PMS5003;69983;42.370;-71.210;2023-09-19T07:31:10;0;0;
80628;PMS5003;69983;42.370;-71.210;2023-09-19T07:33:11;0;0;
80628;PMS5003;69983;42.370;-71.210;2023-09-19T07:35:11;0;0;
80628;PMS5003;69983;42.370;-71.210;2023-09-19T07:37:11;0;0;
80628;PMS5003;69983;42.370;-71.210;2023-09-19T07:39:11;2;0;
80628;PMS5003;69983;42.370;-71.210;2023-09-19T07:41:11;0;0;
80628;PMS5003;69983;42.370;-71.210;2023-09-19T07:43:11;0;0;
80628;PMS5003;69983;42.370;-71.210;2023-09-19T07:45:11;0;0;
80628;PMS5003;69983;42.370;-71.210;2023-09-19T07:47:11;1;1;
80628;PMS5003;69983;42.370;-71.210;2023-09-19T07:49:11;0;0;
80628;PMS5003;69983;42.370;-71.210;2023-09-19T07:51:11;0;0;
80628;PMS5003;69983;42.370;-71.210;2023-09-19T07:53:12;0;0;
80628;PMS5003;69983;42.370;-71.210;2023-09-19T07:55:12;0;0;
80628;PMS5003;69983;42.370;-71.210;2023-09-19T07:57:11;0;0;
80628;PMS5003;69983;42.370;-71.210;2023-09-19T07:59:12;0;0;
80628;PMS5003;69983;42.370;-71.210;2023-09-19T08:01:12;0;0;
80628;PMS5003;69983;42.370;-71.210;2023-09-19T08:03:12;0;0;
80628;PMS5003;69983;42.370;-71.210;2023-09-19T08:05:12;0;0;
80628;PMS5003;69983;42.370;-71.210;2023-09-19T08:07:12;0;0;
80628;PMS5003;69983;42.370;-71.210;2023-09-19T08:09:12;0;0;
80628;PMS5003;69983;42.370;-71.210;2023-09-19T08:11:12;0;0;
80628;PMS5003;69983;42.370;-71.210;2023-09-19T08:13:12;0;0;
80628;PMS5003;69983;42.370;-71.210;2023-09-19T08:15:13;0;0;
80628;PMS5003;69983;42.370;-71.210;2023-09-19T08:17:12;0;0;
80628;PMS5003;69983;42.370;-71.210;2023-09-19T08:19:13;0;0;
80628;PMS5003;69983;42.370;-71.210;2023-09-19T08:21:13;0;0;
80628;PMS5003;69983;42.370;-71.210;2023-09-19T08:23:13;0;0;
80628;PMS5003;69983;42.370;-71.210;2023-09-19T08:25:15;0;0;
80628;PMS5003;69983;42.370;-71.210;2023-09-19T08:27:13;1;0;
80628;PMS5003;69983;42.370;-71.210;2023-09-19T08:29:14;0;0;
80628;PMS5003;69983;42.370;-71.210;2023-09-19T08:31:13;0;0;
80628;PMS5003;69983;42.370;-71.210;2023-09-19T08:33:13;0;0;
80628;PMS5003;69983;42.370;-71.210;2023-09-19T08:35:13;0;0;
80628;PMS5003;69983;42.370;-71.210;2023-09-19T08:37:13;0;0;
80628;PMS5003;69983;42.370;-71.210;2023-09-19T08:39:14;0;0;
80628;PMS5003;69983;42.370;-71.210;2023-09-19T08:41:14;0;0;
80628;PMS5003;69983;42.370;-71.210;2023-09-19T08:43:14;0;0;
80628;PMS5003;69983;42.370;-71.210;2023-09-19T08:45:14;0;0;
80628;PMS5003;69983;42.370;-71.210;2023-09-19T08:47:14;0;0;
80628;PMS5003;69983;42.370;-71.210;2023-09-19T08:49:16;0;0;
80628;PMS5003;69983;42.370;-71.210;2023-09-19T08:51:18;0;0;
80628;PMS5003;69983;42.370;-71.210;2023-09-19T08:53:15;0;0;
80628;PMS5003;69983;42.370;-71.210;2023-09-19T08:55:14;0;0;
80628;PMS5003;69983;42.370;-71.210;2023-09-19T08:57:14;0;0;
80628;PMS5003;69983;42.370;-71.210;2023-09-19T08:59:14;0;0;
80628;PMS5003;69983;42.370;-71.210;2023-09-19T09:01:15;0;0;
80628;PMS5003;69983;42.370;-71.210;2023-09-19T09:03:15;0;0;
80628;PMS5003;69983;42.370;-71.210;2023-09-19T09:05:15;0;0;
80628;PMS5003;69983;42.370;-71.210;2023-09-19T09:07:15;0;0;
80628;PMS5003;69983;42.370;-71.210;2023-09-19T09:09:15;0;0;
80628;PMS5003;69983;42.370;-71.210;2023-09-19T09:11:16;0;0;
80628;PMS5003;69983;42.370;-71.210;2023-09-19T09:13:15;0;0;
80628;PMS5003;69983;42.370;-71.210;2023-09-19T09:15:16;0;0;
80628;PMS5003;69983;42.370;-71.210;2023-09-19T09:17:15;0;0;
80628;PMS5003;69983;42.370;-71.210;2023-09-19T09:19:15;0;0;
80628;PMS5003;69983;42.370;-71.210;2023-09-19T09:21:16;0;0;
80628;PMS5003;69983;42.370;-71.210;2023-09-19T09:23:16;0;0;
80628;PMS5003;69983;42.370;-71.210;2023-09-19T09:25:16;0;0;
80628;PMS5003;69983;42.370;-71.210;2023-09-19T09:27:16;0;0;
80628;PMS5003;69983;42.370;-71.210;2023-09-19T09:29:16;0;0;
80628;PMS5003;69983;42.370;-71.210;2023-09-19T09:31:22;0;0;
80628;PMS5003;69983;42.370;-71.210;2023-09-19T09:33:16;0;0;
80628;PMS5003;69983;42.370;-71.210;2023-09-19T09:35:16;0;0;
80628;PMS5003;69983;42.370;-71.210;2023-09-19T09:37:17;0;0;
80628;PMS5003;69983;42.370;-71.210;2023-09-19T09:41:17;0;0;
80628;PMS5003;69983;42.370;-71.210;2023-09-19T09:43:27;0;0;
80628;PMS5003;69983;42.370;-71.210;2023-09-19T09:45:17;1;0;
80628;PMS5003;69983;42.370;-71.210;2023-09-19T09:47:17;0;0;
80628;PMS5003;69983;42.370;-71.210;2023-09-19T09:49:22;0;0;
80628;PMS5003;69983;42.370;-71.210;2023-09-19T09:53:20;0;0;
80628;PMS5003;69983;42.370;-71.210;2023-09-19T09:55:17;0;0;
80628;PMS5003;69983;42.370;-71.210;2023-09-19T09:57:17;0;0;
80628;PMS5003;69983;42.370;-71.210;2023-09-19T09:59:17;0;0;
80628;PMS5003;69983;42.370;-71.210;2023-09-19T10:01:18;0;0;
80628;PMS5003;69983;42.370;-71.210;2023-09-19T10:03:19;0;0;
80628;PMS5003;69983;42.370;-71.210;2023-09-19T10:05:18;0;0;
80628;PMS5003;69983;42.370;-71.210;2023-09-19T10:07:26;0;0;
80628;PMS5003;69983;42.370;-71.210;2023-09-19T10:09:18;0;0;
80628;PMS5003;69983;42.370;-71.210;2023-09-19T10:11:18;0;0;
80628;PMS5003;69983;42.370;-71.210;2023-09-19T10:13:28;0;0;
80628;PMS5003;69983;42.370;-71.210;2023-09-19T10:15:28;0;0;
80628;PMS5003;69983;42.370;-71.210;2023-09-19T10:17:30;0;0;
80628;PMS5003;69983;42.370;-71.210;2023-09-19T10:19:33;0;0;
80628;PMS5003;69983;42.370;-71.210;2023-09-19T10:21:32;0;0;
80628;PMS5003;69983;42.370;-71.210;2023-09-19T10:23:32;0;0;
80628;PMS5003;69983;42.370;-71.210;2023-09-19T10:25:36;0;0;
80628;PMS5003;69983;42.370;-71.210;2023-09-19T10:27:37;0;0;
80628;PMS5003;69983;42.370;-71.210;2023-09-19T10:29:37;0;0;
80628;PMS5003;69983;42.370;-71.210;2023-09-19T10:31:40;0;0;
80628;PMS5003;69983;42.370;-71.210;2023-09-19T10:33:41;0;0;
80628;PMS5003;69983;42.370;-71.210;2023-09-19T10:35:42;0;0;
80628;PMS5003;69983;42.370;-71.210;2023-09-19T10:37:45;0;0;
80628;PMS5003;69983;42.370;-71.210;2023-09-19T10:39:46;0;0;
80628;PMS5003;69983;42.370;-71.210;2023-09-19T10:41:47;0;0;
80628;PMS5003;69983;42.370;-71.210;2023-09-19T10:43:50;0;0;
80628;PMS5003;69983;42.370;-71.210;2023-09-19T10:45:55;0;0;
80628;PMS5003;69983;42.370;-71.210;2023-09-19T10:47:56;0;0;
80628;PMS5003;69983;42.370;-71.210;2023-09-19T10:49:58;0;0;
80628;PMS5003;69983;42.370;-71.210;2023-09-19T10:51:58;0;0;
80628;PMS5003;69983;42.370;-71.210;2023-09-19T10:54:01;0;0;
80628;PMS5003;69983;42.370;-71.210;2023-09-19T10:56:02;0;0;
80628;PMS5003;69983;42.370;-71.210;2023-09-19T10:58:07;0;0;
80628;PMS5003;69983;42.370;-71.210;2023-09-19T11:00:05;0;0;
80628;PMS5003;69983;42.370;-71.210;2023-09-19T11:06:11;0;0;
80628;PMS5003;69983;42.370;-71.210;2023-09-19T11:08:09;0;0;
80628;PMS5003;69983;42.370;-71.210;2023-09-19T11:10:14;0;0;
80628;PMS5003;69983;42.370;-71.210;2023-09-19T11:16:18;0;0;
80628;PMS5003;69983;42.370;-71.210;2023-09-19T11:20:20;0;0;
80628;PMS5003;69983;42.370;-71.210;2023-09-19T11:22:09;0;0;
80628;PMS5003;69983;42.370;-71.210;2023-09-19T11:24:29;0;0;
80628;PMS5003;69983;42.370;-71.210;2023-09-19T11:26:10;0;0;
80628;PMS5003;69983;42.370;-71.210;2023-09-19T11:30:25;0;0;
80628;PMS5003;69983;42.370;-71.210;2023-09-19T11:32:10;0;0;
80628;PMS5003;69983;42.370;-71.210;2023-09-19T11:36:10;0;0;
80628;PMS5003;69983;42.370;-71.210;2023-09-19T11:38:10;0;0;
80628;PMS5003;69983;42.370;-71.210;2023-09-19T11:40:10;0;0;
80628;PMS5003;69983;42.370;-71.210;2023-09-19T11:46:10;0;0;
80628;PMS5003;69983;42.370;-71.210;2023-09-19T11:48:10;0;0;
80628;PMS5003;69983;42.370;-71.210;2023-09-19T11:50:10;0;0;
80628;PMS5003;69983;42.370;-71.210;2023-09-19T11:52:10;0;0;
80628;PMS5003;69983;42.370;-71.210;2023-09-19T11:54:11;0;0;
80628;PMS5003;69983;42.370;-71.210;2023-09-19T11:56:11;0;0;
80628;PMS5003;69983;42.370;-71.210;2023-09-19T11:58:11;0;0;
80628;PMS5003;69983;42.370;-71.210;2023-09-19T12:00:17;0;0;
80628;PMS5003;69983;42.370;-71.210;2023-09-19T12:02:11;0;0;
80628;PMS5003;69983;42.370;-71.210;2023-09-19T12:04:11;0;0;
80628;PMS5003;69983;42.370;-71.210;2023-09-19T12:06:11;0;0;
80628;PMS5003;69983;42.370;-71.210;2023-09-19T12:08:11;0;0;
80628;PMS5003;69983;42.370;-71.210;2023-09-19T12:10:11;0;0;
80628;PMS5003;69983;42.370;-71.210;2023-09-19T12:12:11;0;0;
80628;PMS5003;69983;42.370;-71.210;2023-09-19T12:14:12;0;0;
80628;PMS5003;69983;42.370;-71.210;2023-09-19T12:16:13;0;0;
80628;PMS5003;69983;42.370;-71.210;2023-09-19T12:20:12;0;0;
80628;PMS5003;69983;42.370;-71.210;2023-09-19T12:22:12;0;0;
80628;PMS5003;69983;42.370;-71.210;2023-09-19T12:24:12;0;0;
80628;PMS5003;69983;42.370;-71.210;2023-09-19T12:26:12;0;0;
80628;PMS5003;69983;42.370;-71.210;2023-09-19T12:28:12;0;0;
80628;PMS5003;69983;42.370;-71.210;2023-09-19T12:30:12;0;0;
80628;PMS5003;69983;42.370;-71.210;2023-09-19T12:32:12;0;0;
80628;PMS5003;69983;42.370;-71.210;2023-09-19T12:34:12;0;0;
80628;PMS5003;69983;42.370;-71.210;2023-09-19T12:36:20;0;0;
80628;PMS5003;69983;42.370;-71.210;2023-09-19T12:38:22;0;0;
80628;PMS5003;69983;42.370;-71.210;2023-09-19T12:40:13;0;0;
80628;PMS5003;69983;42.370;-71.210;2023-09-19T12:42:13;0;0;
80628;PMS5003;69983;42.370;-71.210;2023-09-19T12:44:13;0;0;
80628;PMS5003;69983;42.370;-71.210;2023-09-19T12:46:13;0;0;
80628;PMS5003;69983;42.370;-71.210;2023-09-19T12:48:23;0;0;
80628;PMS5003;69983;42.370;-71.210;2023-09-19T12:50:13;0;0;
80628;PMS5003;69983;42.370;-71.210;2023-09-19T12:52:13;0;0;
80628;PMS5003;69983;42.370;-71.210;2023-09-19T12:54:13;0;0;
80628;PMS5003;69983;42.370;-71.210;2023-09-19T12:56:15;0;0;
80628;PMS5003;69983;42.370;-71.210;2023-09-19T12:58:14;0;0;
80628;PMS5003;69983;42.370;-71.210;2023-09-19T13:00:14;0;0;
80628;PMS5003;69983;42.370;-71.210;2023-09-19T13:02:14;0;0;
80628;PMS5003;69983;42.370;-71.210;2023-09-19T13:04:15;0;0;
80628;PMS5003;69983;42.370;-71.210;2023-09-19T13:06:14;0;0;
80628;PMS5003;69983;42.370;-71.210;2023-09-19T13:08:23;0;0;
80628;PMS5003;69983;42.370;-71.210;2023-09-19T13:10:14;0;0;
80628;PMS5003;69983;42.370;-71.210;2023-09-19T13:14:16;0;0;
80628;PMS5003;69983;42.370;-71.210;2023-09-19T13:16:14;0;0;
80628;PMS5003;69983;42.370;-71.210;2023-09-19T13:18:14;0;0;
80628;PMS5003;69983;42.370;-71.210;2023-09-19T13:20:23;0;0;
80628;PMS5003;69983;42.370;-71.210;2023-09-19T13:24:18;0;0;
80628;PMS5003;69983;42.370;-71.210;2023-09-19T13:26:15;0;0;
80628;PMS5003;69983;42.370;-71.210;2023-09-19T13:28:15;0;0;
80628;PMS5003;69983;42.370;-71.210;2023-09-19T13:30:15;0;0;
80628;PMS5003;69983;42.370;-71.210;2023-09-19T13:32:15;0;0;
80628;PMS5003;69983;42.370;-71.210;2023-09-19T13:34:15;0;0;
80628;PMS5003;69983;42.370;-71.210;2023-09-19T13:36:15;0;0;